sensor_id;sensor_type;location;lat;lon;timestamp;P1;durP1;ratioP1;P2;durP2;ratioP2
56075;SDS011;41951;49.022;12.066;2022-07-11T00:02:18;2.42;;;1.33;;
56075;SDS011;41951;49.022;12.066;2022-07-11T00:04:44;3.10;;;1.20;;
56075;SDS011;41951;49.022;12.066;2022-07-11T00:07:13;4.47;;;1.63;;
56075;SDS011;41951;49.022;12.066;2022-07-11T00:09:40;3.58;;;1.23;;
56075;SDS011;41951;49.022;12.066;2022-07-11T00:12:06;2.42;;;1.38;;
56075;SDS011;41951;49.022;12.066;2022-07-11T00:14:33;3.42;;;1.13;;
56075;SDS011;41951;49.022;12.066;2022-07-11T00:16:59;2.85;;;1.13;;
56075;SDS011;41951;49.022;12.066;2022-07-11T00:19:24;2.85;;;1.10;;
56075;SDS011;41951;49.022;12.066;2022-07-11T00:21:51;1.42;;;1.00;;
56075;SDS011;41951;49.022;12.066;2022-07-11T00:24:17;3.17;;;1.10;;
56075;SDS011;41951;49.022;12.066;2022-07-11T00:26:45;2.50;;;1.15;;
56075;SDS011;41951;49.022;12.066;2022-07-11T00:29:11;3.35;;;1.10;;
56075;SDS011;41951;49.022;12.066;2022-07-11T00:31:37;4.78;;;1.17;;
56075;SDS011;41951;49.022;12.066;2022-07-11T00:34:03;4.63;;;1.20;;
56075;SDS011;41951;49.022;12.066;2022-07-11T00:36:29;3.63;;;1.30;;
56075;SDS011;41951;49.022;12.066;2022-07-11T00:38:54;4.75;;;1.17;;
56075;SDS011;41951;49.022;12.066;2022-07-11T00:41:20;1.63;;;1.05;;
56075;SDS011;41951;49.022;12.066;2022-07-11T00:43:50;5.40;;;1.30;;
56075;SDS011;41951;49.022;12.066;2022-07-11T00:46:18;3.92;;;1.02;;
56075;SDS011;41951;49.022;12.066;2022-07-11T00:48:44;1.50;;;0.88;;
56075;SDS011;41951;49.022;12.066;2022-07-11T00:51:09;2.25;;;0.90;;
56075;SDS011;41951;49.022;12.066;2022-07-11T00:53:35;2.67;;;1.00;;
56075;SDS011;41951;49.022;12.066;2022-07-11T00:56:01;4.95;;;1.17;;
56075;SDS011;41951;49.022;12.066;2022-07-11T00:58:27;1.95;;;1.02;;
56075;SDS011;41951;49.022;12.066;2022-07-11T01:00:53;7.47;;;1.40;;
56075;SDS011;41951;49.022;12.066;2022-07-11T01:03:19;2.83;;;1.10;;
56075;SDS011;41951;49.022;12.066;2022-07-11T01:05:45;3.65;;;1.15;;
56075;SDS011;41951;49.022;12.066;2022-07-11T01:08:10;4.70;;;1.08;;
56075;SDS011;41951;49.022;12.066;2022-07-11T01:10:36;2.30;;;1.20;;
56075;SDS011;41951;49.022;12.066;2022-07-11T01:13:01;2.95;;;1.10;;
56075;SDS011;41951;49.022;12.066;2022-07-11T01:15:27;4.25;;;1.20;;
56075;SDS011;41951;49.022;12.066;2022-07-11T01:17:53;4.38;;;1.10;;
56075;SDS011;41951;49.022;12.066;2022-07-11T01:20:19;1.92;;;1.17;;
56075;SDS011;41951;49.022;12.066;2022-07-11T01:22:52;3.58;;;1.10;;
56075;SDS011;41951;49.022;12.066;2022-07-11T01:25:19;2.30;;;1.08;;
56075;SDS011;41951;49.022;12.066;2022-07-11T01:30:23;3.05;;;1.30;;
56075;SDS011;41951;49.022;12.066;2022-07-11T01:32:51;2.88;;;1.10;;
56075;SDS011;41951;49.022;12.066;2022-07-11T01:35:17;5.28;;;1.30;;
56075;SDS011;41951;49.022;12.066;2022-07-11T01:37:43;1.58;;;1.00;;
56075;SDS011;41951;49.022;12.066;2022-07-11T01:40:09;1.58;;;1.00;;
56075;SDS011;41951;49.022;12.066;2022-07-11T01:42:35;1.80;;;1.30;;
56075;SDS011;41951;49.022;12.066;2022-07-11T01:45:00;2.38;;;1.02;;
56075;SDS011;41951;49.022;12.066;2022-07-11T01:47:27;1.42;;;0.98;;
56075;SDS011;41951;49.022;12.066;2022-07-11T01:49:52;4.50;;;1.27;;
56075;SDS011;41951;49.022;12.066;2022-07-11T01:52:18;3.20;;;1.20;;
56075;SDS011;41951;49.022;12.066;2022-07-11T01:54:44;5.45;;;1.45;;
56075;SDS011;41951;49.022;12.066;2022-07-11T01:57:09;3.15;;;1.10;;
56075;SDS011;41951;49.022;12.066;2022-07-11T01:59:35;2.00;;;1.05;;
56075;SDS011;41951;49.022;12.066;2022-07-11T02:02:01;6.82;;;1.38;;
56075;SDS011;41951;49.022;12.066;2022-07-11T02:04:26;2.58;;;1.13;;
56075;SDS011;41951;49.022;12.066;2022-07-11T02:06:52;3.17;;;1.13;;
56075;SDS011;41951;49.022;12.066;2022-07-11T02:09:17;3.78;;;1.00;;
56075;SDS011;41951;49.022;12.066;2022-07-11T02:11:43;5.00;;;1.20;;
56075;SDS011;41951;49.022;12.066;2022-07-11T02:14:09;2.67;;;1.10;;
56075;SDS011;41951;49.022;12.066;2022-07-11T02:16:34;2.90;;;1.20;;
56075;SDS011;41951;49.022;12.066;2022-07-11T02:19:00;3.45;;;1.38;;
56075;SDS011;41951;49.022;12.066;2022-07-11T02:21:25;3.28;;;1.27;;
56075;SDS011;41951;49.022;12.066;2022-07-11T02:23:51;4.10;;;1.30;;
56075;SDS011;41951;49.022;12.066;2022-07-11T02:26:16;3.20;;;1.10;;
56075;SDS011;41951;49.022;12.066;2022-07-11T02:28:42;4.05;;;1.30;;
56075;SDS011;41951;49.022;12.066;2022-07-11T02:31:09;3.78;;;1.25;;
56075;SDS011;41951;49.022;12.066;2022-07-11T02:33:34;3.45;;;1.25;;
56075;SDS011;41951;49.022;12.066;2022-07-11T02:36:00;3.65;;;1.20;;
56075;SDS011;41951;49.022;12.066;2022-07-11T02:38:26;1.85;;;1.10;;
56075;SDS011;41951;49.022;12.066;2022-07-11T02:40:51;6.40;;;1.30;;
56075;SDS011;41951;49.022;12.066;2022-07-11T02:43:18;5.50;;;1.30;;
56075;SDS011;41951;49.022;12.066;2022-07-11T02:45:44;4.22;;;1.58;;
56075;SDS011;41951;49.022;12.066;2022-07-11T02:48:09;2.60;;;1.15;;
56075;SDS011;41951;49.022;12.066;2022-07-11T02:50:35;5.25;;;1.23;;
56075;SDS011;41951;49.022;12.066;2022-07-11T02:53:01;4.35;;;1.33;;
56075;SDS011;41951;49.022;12.066;2022-07-11T02:55:26;4.40;;;1.10;;
56075;SDS011;41951;49.022;12.066;2022-07-11T02:57:52;4.75;;;1.23;;
56075;SDS011;41951;49.022;12.066;2022-07-11T03:00:18;4.55;;;1.20;;
56075;SDS011;41951;49.022;12.066;2022-07-11T03:02:44;3.13;;;1.27;;
56075;SDS011;41951;49.022;12.066;2022-07-11T03:05:10;2.55;;;1.20;;
56075;SDS011;41951;49.022;12.066;2022-07-11T03:07:36;2.38;;;1.00;;
56075;SDS011;41951;49.022;12.066;2022-07-11T03:10:02;3.20;;;1.23;;
56075;SDS011;41951;49.022;12.066;2022-07-11T03:12:28;3.42;;;1.40;;
56075;SDS011;41951;49.022;12.066;2022-07-11T03:14:53;5.53;;;1.50;;
56075;SDS011;41951;49.022;12.066;2022-07-11T03:17:19;3.30;;;1.33;;
56075;SDS011;41951;49.022;12.066;2022-07-11T03:19:45;3.80;;;1.83;;
56075;SDS011;41951;49.022;12.066;2022-07-11T03:22:12;3.53;;;1.33;;
56075;SDS011;41951;49.022;12.066;2022-07-11T03:24:38;2.95;;;1.30;;
56075;SDS011;41951;49.022;12.066;2022-07-11T03:27:04;2.55;;;1.30;;
56075;SDS011;41951;49.022;12.066;2022-07-11T03:29:30;6.70;;;1.20;;
56075;SDS011;41951;49.022;12.066;2022-07-11T03:31:55;3.30;;;1.10;;
56075;SDS011;41951;49.022;12.066;2022-07-11T03:34:21;4.35;;;1.23;;
56075;SDS011;41951;49.022;12.066;2022-07-11T03:36:46;3.20;;;1.27;;
56075;SDS011;41951;49.022;12.066;2022-07-11T03:39:13;2.72;;;1.45;;
56075;SDS011;41951;49.022;12.066;2022-07-11T03:41:39;2.58;;;1.20;;
56075;SDS011;41951;49.022;12.066;2022-07-11T03:44:04;2.53;;;1.20;;
56075;SDS011;41951;49.022;12.066;2022-07-11T03:46:30;4.05;;;1.33;;
56075;SDS011;41951;49.022;12.066;2022-07-11T03:48:56;2.03;;;1.13;;
56075;SDS011;41951;49.022;12.066;2022-07-11T03:51:21;4.68;;;1.73;;
56075;SDS011;41951;49.022;12.066;2022-07-11T03:53:47;5.65;;;1.33;;
56075;SDS011;41951;49.022;12.066;2022-07-11T03:56:12;2.45;;;1.30;;
56075;SDS011;41951;49.022;12.066;2022-07-11T03:58:41;2.55;;;1.40;;
56075;SDS011;41951;49.022;12.066;2022-07-11T04:01:07;2.72;;;1.15;;
56075;SDS011;41951;49.022;12.066;2022-07-11T04:03:33;3.35;;;1.20;;
56075;SDS011;41951;49.022;12.066;2022-07-11T04:05:58;3.65;;;1.20;;
56075;SDS011;41951;49.022;12.066;2022-07-11T04:08:24;2.45;;;1.35;;
56075;SDS011;41951;49.022;12.066;2022-07-11T04:10:49;4.40;;;1.30;;
56075;SDS011;41951;49.022;12.066;2022-07-11T04:13:15;3.28;;;1.30;;
56075;SDS011;41951;49.022;12.066;2022-07-11T04:15:41;3.13;;;1.23;;
56075;SDS011;41951;49.022;12.066;2022-07-11T04:18:06;2.78;;;1.35;;
56075;SDS011;41951;49.022;12.066;2022-07-11T04:20:32;2.63;;;1.50;;
56075;SDS011;41951;49.022;12.066;2022-07-11T04:22:58;2.45;;;1.38;;
56075;SDS011;41951;49.022;12.066;2022-07-11T04:25:23;1.83;;;1.10;;
56075;SDS011;41951;49.022;12.066;2022-07-11T04:27:49;4.65;;;1.35;;
56075;SDS011;41951;49.022;12.066;2022-07-11T04:30:14;4.60;;;1.35;;
56075;SDS011;41951;49.022;12.066;2022-07-11T04:32:40;3.22;;;1.30;;
56075;SDS011;41951;49.022;12.066;2022-07-11T04:35:06;4.45;;;1.30;;
56075;SDS011;41951;49.022;12.066;2022-07-11T04:37:32;5.25;;;1.48;;
56075;SDS011;41951;49.022;12.066;2022-07-11T04:39:57;2.72;;;1.30;;
56075;SDS011;41951;49.022;12.066;2022-07-11T04:42:23;2.95;;;1.30;;
56075;SDS011;41951;49.022;12.066;2022-07-11T04:44:48;4.50;;;1.38;;
56075;SDS011;41951;49.022;12.066;2022-07-11T04:47:14;2.78;;;1.40;;
56075;SDS011;41951;49.022;12.066;2022-07-11T04:49:40;3.40;;;1.30;;
56075;SDS011;41951;49.022;12.066;2022-07-11T04:52:05;5.22;;;1.60;;
56075;SDS011;41951;49.022;12.066;2022-07-11T04:54:32;3.65;;;1.10;;
56075;SDS011;41951;49.022;12.066;2022-07-11T04:56:58;2.58;;;1.00;;
56075;SDS011;41951;49.022;12.066;2022-07-11T04:59:23;2.40;;;0.98;;
56075;SDS011;41951;49.022;12.066;2022-07-11T05:01:49;2.33;;;0.93;;
56075;SDS011;41951;49.022;12.066;2022-07-11T05:04:15;3.22;;;0.80;;
56075;SDS011;41951;49.022;12.066;2022-07-11T05:06:41;5.07;;;1.27;;
56075;SDS011;41951;49.022;12.066;2022-07-11T05:09:06;1.30;;;0.80;;
56075;SDS011;41951;49.022;12.066;2022-07-11T05:11:33;1.58;;;0.98;;
56075;SDS011;41951;49.022;12.066;2022-07-11T05:13:59;2.92;;;1.10;;
56075;SDS011;41951;49.022;12.066;2022-07-11T05:16:25;3.35;;;1.10;;
56075;SDS011;41951;49.022;12.066;2022-07-11T05:18:51;1.65;;;0.82;;
56075;SDS011;41951;49.022;12.066;2022-07-11T05:21:16;3.22;;;1.30;;
56075;SDS011;41951;49.022;12.066;2022-07-11T05:23:47;2.40;;;1.35;;
56075;SDS011;41951;49.022;12.066;2022-07-11T05:26:13;2.25;;;1.00;;
56075;SDS011;41951;49.022;12.066;2022-07-11T05:28:39;5.32;;;1.00;;
56075;SDS011;41951;49.022;12.066;2022-07-11T05:31:05;3.95;;;1.65;;
56075;SDS011;41951;49.022;12.066;2022-07-11T05:33:31;2.90;;;1.05;;
56075;SDS011;41951;49.022;12.066;2022-07-11T05:35:56;4.28;;;1.42;;
56075;SDS011;41951;49.022;12.066;2022-07-11T05:38:22;5.68;;;1.20;;
56075;SDS011;41951;49.022;12.066;2022-07-11T05:40:47;1.70;;;1.00;;
56075;SDS011;41951;49.022;12.066;2022-07-11T05:43:13;4.35;;;1.40;;
56075;SDS011;41951;49.022;12.066;2022-07-11T05:45:39;1.92;;;1.10;;
56075;SDS011;41951;49.022;12.066;2022-07-11T05:48:04;3.80;;;1.15;;
56075;SDS011;41951;49.022;12.066;2022-07-11T05:50:30;2.28;;;1.30;;
56075;SDS011;41951;49.022;12.066;2022-07-11T05:52:55;3.95;;;1.55;;
56075;SDS011;41951;49.022;12.066;2022-07-11T05:55:22;2.50;;;1.20;;
56075;SDS011;41951;49.022;12.066;2022-07-11T05:57:48;3.90;;;1.20;;
56075;SDS011;41951;49.022;12.066;2022-07-11T06:00:14;2.00;;;1.10;;
56075;SDS011;41951;49.022;12.066;2022-07-11T06:02:40;3.55;;;1.45;;
56075;SDS011;41951;49.022;12.066;2022-07-11T06:05:09;3.25;;;1.13;;
56075;SDS011;41951;49.022;12.066;2022-07-11T06:07:36;1.85;;;1.10;;
56075;SDS011;41951;49.022;12.066;2022-07-11T06:10:20;3.25;;;1.20;;
56075;SDS011;41951;49.022;12.066;2022-07-11T06:12:46;2.63;;;1.20;;
56075;SDS011;41951;49.022;12.066;2022-07-11T06:15:11;3.30;;;1.20;;
56075;SDS011;41951;49.022;12.066;2022-07-11T06:17:37;3.97;;;1.50;;
56075;SDS011;41951;49.022;12.066;2022-07-11T06:20:03;1.67;;;1.00;;
56075;SDS011;41951;49.022;12.066;2022-07-11T06:22:28;1.50;;;0.88;;
56075;SDS011;41951;49.022;12.066;2022-07-11T06:24:54;2.90;;;1.08;;
56075;SDS011;41951;49.022;12.066;2022-07-11T06:27:19;2.90;;;1.08;;
56075;SDS011;41951;49.022;12.066;2022-07-11T06:29:45;2.60;;;1.20;;
56075;SDS011;41951;49.022;12.066;2022-07-11T06:32:11;2.45;;;1.02;;
56075;SDS011;41951;49.022;12.066;2022-07-11T06:34:36;5.82;;;1.48;;
56075;SDS011;41951;49.022;12.066;2022-07-11T06:37:02;2.42;;;1.45;;
56075;SDS011;41951;49.022;12.066;2022-07-11T06:39:28;2.33;;;1.30;;
56075;SDS011;41951;49.022;12.066;2022-07-11T06:41:54;2.42;;;1.45;;
56075;SDS011;41951;49.022;12.066;2022-07-11T06:44:19;4.80;;;1.20;;
56075;SDS011;41951;49.022;12.066;2022-07-11T06:46:45;5.35;;;1.55;;
56075;SDS011;41951;49.022;12.066;2022-07-11T06:49:10;3.88;;;1.30;;
56075;SDS011;41951;49.022;12.066;2022-07-11T06:51:38;3.15;;;1.48;;
56075;SDS011;41951;49.022;12.066;2022-07-11T06:54:04;3.92;;;1.30;;
56075;SDS011;41951;49.022;12.066;2022-07-11T06:56:29;2.50;;;1.25;;
56075;SDS011;41951;49.022;12.066;2022-07-11T06:58:55;2.60;;;1.50;;
56075;SDS011;41951;49.022;12.066;2022-07-11T07:01:21;8.60;;;1.65;;
56075;SDS011;41951;49.022;12.066;2022-07-11T07:03:46;3.60;;;1.63;;
56075;SDS011;41951;49.022;12.066;2022-07-11T07:06:12;3.45;;;1.60;;
56075;SDS011;41951;49.022;12.066;2022-07-11T07:08:37;3.35;;;2.00;;
56075;SDS011;41951;49.022;12.066;2022-07-11T07:11:03;3.80;;;1.70;;
56075;SDS011;41951;49.022;12.066;2022-07-11T07:13:29;3.20;;;1.35;;
56075;SDS011;41951;49.022;12.066;2022-07-11T07:15:55;5.55;;;2.20;;
56075;SDS011;41951;49.022;12.066;2022-07-11T07:18:22;4.53;;;1.85;;
56075;SDS011;41951;49.022;12.066;2022-07-11T07:20:49;3.58;;;1.67;;
56075;SDS011;41951;49.022;12.066;2022-07-11T07:23:15;3.58;;;1.48;;
56075;SDS011;41951;49.022;12.066;2022-07-11T07:25:41;4.45;;;1.60;;
56075;SDS011;41951;49.022;12.066;2022-07-11T07:28:07;6.85;;;1.70;;
56075;SDS011;41951;49.022;12.066;2022-07-11T07:30:33;3.10;;;1.50;;
56075;SDS011;41951;49.022;12.066;2022-07-11T07:32:58;2.92;;;1.38;;
56075;SDS011;41951;49.022;12.066;2022-07-11T07:35:25;6.80;;;1.73;;
56075;SDS011;41951;49.022;12.066;2022-07-11T07:37:51;6.57;;;1.40;;
56075;SDS011;41951;49.022;12.066;2022-07-11T07:40:17;2.50;;;1.30;;
56075;SDS011;41951;49.022;12.066;2022-07-11T07:42:42;3.00;;;1.30;;
56075;SDS011;41951;49.022;12.066;2022-07-11T07:45:09;3.22;;;1.40;;
56075;SDS011;41951;49.022;12.066;2022-07-11T07:47:34;4.10;;;1.45;;
56075;SDS011;41951;49.022;12.066;2022-07-11T07:50:01;2.83;;;1.40;;
56075;SDS011;41951;49.022;12.066;2022-07-11T07:52:27;2.47;;;1.70;;
56075;SDS011;41951;49.022;12.066;2022-07-11T07:54:53;2.63;;;1.40;;
56075;SDS011;41951;49.022;12.066;2022-07-11T07:57:19;2.08;;;1.35;;
56075;SDS011;41951;49.022;12.066;2022-07-11T07:59:44;4.10;;;1.40;;
56075;SDS011;41951;49.022;12.066;2022-07-11T08:02:10;2.40;;;1.20;;
56075;SDS011;41951;49.022;12.066;2022-07-11T08:04:35;2.58;;;1.48;;
56075;SDS011;41951;49.022;12.066;2022-07-11T08:07:01;4.18;;;1.38;;
56075;SDS011;41951;49.022;12.066;2022-07-11T08:09:27;3.35;;;1.35;;
56075;SDS011;41951;49.022;12.066;2022-07-11T08:11:53;3.28;;;1.30;;
56075;SDS011;41951;49.022;12.066;2022-07-11T08:14:19;3.10;;;1.38;;
56075;SDS011;41951;49.022;12.066;2022-07-11T08:16:45;3.80;;;1.30;;
56075;SDS011;41951;49.022;12.066;2022-07-11T08:19:12;2.05;;;1.10;;
56075;SDS011;41951;49.022;12.066;2022-07-11T08:21:38;2.72;;;1.30;;
56075;SDS011;41951;49.022;12.066;2022-07-11T08:24:05;4.43;;;1.50;;
56075;SDS011;41951;49.022;12.066;2022-07-11T08:26:30;5.32;;;1.60;;
56075;SDS011;41951;49.022;12.066;2022-07-11T08:28:57;2.78;;;1.30;;
56075;SDS011;41951;49.022;12.066;2022-07-11T08:31:23;3.90;;;1.40;;
56075;SDS011;41951;49.022;12.066;2022-07-11T08:33:49;3.53;;;1.27;;
56075;SDS011;41951;49.022;12.066;2022-07-11T08:36:17;4.03;;;1.50;;
56075;SDS011;41951;49.022;12.066;2022-07-11T08:38:43;2.65;;;1.40;;
56075;SDS011;41951;49.022;12.066;2022-07-11T08:41:11;3.60;;;1.55;;
56075;SDS011;41951;49.022;12.066;2022-07-11T08:43:38;3.83;;;1.27;;
56075;SDS011;41951;49.022;12.066;2022-07-11T08:46:06;6.47;;;2.05;;
56075;SDS011;41951;49.022;12.066;2022-07-11T08:48:33;6.72;;;2.13;;
56075;SDS011;41951;49.022;12.066;2022-07-11T08:51:00;2.58;;;1.13;;
56075;SDS011;41951;49.022;12.066;2022-07-11T08:53:26;2.65;;;1.40;;
56075;SDS011;41951;49.022;12.066;2022-07-11T08:55:55;2.47;;;1.30;;
56075;SDS011;41951;49.022;12.066;2022-07-11T08:58:21;2.50;;;1.30;;
56075;SDS011;41951;49.022;12.066;2022-07-11T09:00:48;4.68;;;1.25;;
56075;SDS011;41951;49.022;12.066;2022-07-11T09:03:15;1.92;;;1.20;;
56075;SDS011;41951;49.022;12.066;2022-07-11T09:05:41;2.35;;;1.15;;
56075;SDS011;41951;49.022;12.066;2022-07-11T09:08:08;4.45;;;1.50;;
56075;SDS011;41951;49.022;12.066;2022-07-11T09:10:33;3.08;;;1.20;;
56075;SDS011;41951;49.022;12.066;2022-07-11T09:13:04;3.05;;;1.20;;
56075;SDS011;41951;49.022;12.066;2022-07-11T09:15:43;3.45;;;1.25;;
56075;SDS011;41951;49.022;12.066;2022-07-11T09:21:01;3.20;;;1.20;;
56075;SDS011;41951;49.022;12.066;2022-07-11T09:23:49;3.10;;;1.10;;
56075;SDS011;41951;49.022;12.066;2022-07-11T09:26:35;2.30;;;1.15;;
56075;SDS011;41951;49.022;12.066;2022-07-11T09:31:40;3.20;;;1.00;;
56075;SDS011;41951;49.022;12.066;2022-07-11T09:34:07;1.35;;;0.85;;
56075;SDS011;41951;49.022;12.066;2022-07-11T09:36:38;2.13;;;1.20;;
56075;SDS011;41951;49.022;12.066;2022-07-11T09:39:05;1.95;;;0.90;;
56075;SDS011;41951;49.022;12.066;2022-07-11T09:41:34;4.32;;;1.25;;
56075;SDS011;41951;49.022;12.066;2022-07-11T09:46:33;1.17;;;0.90;;
56075;SDS011;41951;49.022;12.066;2022-07-11T09:48:59;11.90;;;2.10;;
56075;SDS011;41951;49.022;12.066;2022-07-11T09:51:26;5.45;;;0.98;;
56075;SDS011;41951;49.022;12.066;2022-07-11T09:53:55;1.60;;;0.90;;
56075;SDS011;41951;49.022;12.066;2022-07-11T09:56:35;2.97;;;1.10;;
56075;SDS011;41951;49.022;12.066;2022-07-11T09:59:05;1.02;;;0.75;;
56075;SDS011;41951;49.022;12.066;2022-07-11T10:01:33;2.92;;;1.08;;
56075;SDS011;41951;49.022;12.066;2022-07-11T10:03:59;2.40;;;1.00;;
56075;SDS011;41951;49.022;12.066;2022-07-11T10:06:25;1.60;;;0.90;;
56075;SDS011;41951;49.022;12.066;2022-07-11T10:08:52;1.83;;;0.82;;
56075;SDS011;41951;49.022;12.066;2022-07-11T10:11:18;0.95;;;0.70;;
56075;SDS011;41951;49.022;12.066;2022-07-11T10:13:44;1.67;;;0.70;;
56075;SDS011;41951;49.022;12.066;2022-07-11T10:18:56;1.38;;;0.80;;
56075;SDS011;41951;49.022;12.066;2022-07-11T10:21:31;3.80;;;0.70;;
56075;SDS011;41951;49.022;12.066;2022-07-11T10:24:21;0.88;;;0.77;;
56075;SDS011;41951;49.022;12.066;2022-07-11T10:27:32;2.38;;;0.80;;
56075;SDS011;41951;49.022;12.066;2022-07-11T10:30:02;2.38;;;0.93;;
56075;SDS011;41951;49.022;12.066;2022-07-11T10:32:28;1.23;;;0.70;;
56075;SDS011;41951;49.022;12.066;2022-07-11T10:35:07;1.98;;;0.73;;
56075;SDS011;41951;49.022;12.066;2022-07-11T10:37:46;1.70;;;0.77;;
56075;SDS011;41951;49.022;12.066;2022-07-11T10:40:12;1.25;;;0.70;;
56075;SDS011;41951;49.022;12.066;2022-07-11T10:42:39;0.60;;;0.60;;
56075;SDS011;41951;49.022;12.066;2022-07-11T10:45:07;0.85;;;0.70;;
56075;SDS011;41951;49.022;12.066;2022-07-11T10:52:56;1.75;;;0.73;;
56075;SDS011;41951;49.022;12.066;2022-07-11T11:01:13;0.85;;;0.73;;
56075;SDS011;41951;49.022;12.066;2022-07-11T11:03:40;2.45;;;0.50;;
56075;SDS011;41951;49.022;12.066;2022-07-11T11:06:07;0.50;;;0.50;;
56075;SDS011;41951;49.022;12.066;2022-07-11T11:11:06;0.40;;;0.40;;
56075;SDS011;41951;49.022;12.066;2022-07-11T11:13:55;0.20;;;0.20;;
56075;SDS011;41951;49.022;12.066;2022-07-11T11:16:46;1.50;;;0.50;;
56075;SDS011;41951;49.022;12.066;2022-07-11T11:22:12;1.20;;;0.50;;
56075;SDS011;41951;49.022;12.066;2022-07-11T11:24:38;0.30;;;0.30;;
56075;SDS011;41951;49.022;12.066;2022-07-11T11:27:04;1.55;;;0.70;;
56075;SDS011;41951;49.022;12.066;2022-07-11T11:29:30;1.27;;;0.50;;
56075;SDS011;41951;49.022;12.066;2022-07-11T11:31:56;1.17;;;0.40;;
56075;SDS011;41951;49.022;12.066;2022-07-11T11:34:23;0.75;;;0.30;;
56075;SDS011;41951;49.022;12.066;2022-07-11T11:36:54;1.20;;;0.43;;
56075;SDS011;41951;49.022;12.066;2022-07-11T11:39:42;1.67;;;0.50;;
56075;SDS011;41951;49.022;12.066;2022-07-11T11:42:11;1.27;;;0.60;;
56075;SDS011;41951;49.022;12.066;2022-07-11T11:44:51;0.82;;;0.47;;
56075;SDS011;41951;49.022;12.066;2022-07-11T11:47:17;0.55;;;0.40;;
56075;SDS011;41951;49.022;12.066;2022-07-11T11:49:43;0.50;;;0.50;;
56075;SDS011;41951;49.022;12.066;2022-07-11T11:52:10;6.75;;;0.50;;
56075;SDS011;41951;49.022;12.066;2022-07-11T11:54:36;1.85;;;0.60;;
56075;SDS011;41951;49.022;12.066;2022-07-11T11:57:10;1.80;;;0.50;;
56075;SDS011;41951;49.022;12.066;2022-07-11T11:59:36;0.85;;;0.55;;
56075;SDS011;41951;49.022;12.066;2022-07-11T12:02:03;0.60;;;0.60;;
56075;SDS011;41951;49.022;12.066;2022-07-11T12:04:33;0.40;;;0.40;;
56075;SDS011;41951;49.022;12.066;2022-07-11T12:07:01;1.25;;;0.60;;
56075;SDS011;41951;49.022;12.066;2022-07-11T12:09:28;0.40;;;0.40;;
56075;SDS011;41951;49.022;12.066;2022-07-11T12:12:19;1.58;;;0.60;;
56075;SDS011;41951;49.022;12.066;2022-07-11T12:15:53;2.23;;;1.37;;
56075;SDS011;41951;49.022;12.066;2022-07-11T12:18:20;0.85;;;0.70;;
56075;SDS011;41951;49.022;12.066;2022-07-11T12:20:46;2.53;;;0.80;;
56075;SDS011;41951;49.022;12.066;2022-07-11T12:23:12;1.33;;;0.63;;
56075;SDS011;41951;49.022;12.066;2022-07-11T12:25:41;1.98;;;0.40;;
56075;SDS011;41951;49.022;12.066;2022-07-11T12:28:07;1.58;;;0.60;;
56075;SDS011;41951;49.022;12.066;2022-07-11T12:30:34;1.17;;;0.50;;
56075;SDS011;41951;49.022;12.066;2022-07-11T12:35:33;0.68;;;0.50;;
56075;SDS011;41951;49.022;12.066;2022-07-11T12:37:59;0.47;;;0.45;;
56075;SDS011;41951;49.022;12.066;2022-07-11T12:40:25;0.63;;;0.60;;
56075;SDS011;41951;49.022;12.066;2022-07-11T12:42:50;1.88;;;0.80;;
56075;SDS011;41951;49.022;12.066;2022-07-11T12:45:16;0.90;;;0.68;;
56075;SDS011;41951;49.022;12.066;2022-07-11T12:47:51;0.63;;;0.60;;
56075;SDS011;41951;49.022;12.066;2022-07-11T12:50:22;0.95;;;0.77;;
56075;SDS011;41951;49.022;12.066;2022-07-11T12:52:57;1.23;;;0.70;;
56075;SDS011;41951;49.022;12.066;2022-07-11T12:55:27;1.17;;;0.70;;
56075;SDS011;41951;49.022;12.066;2022-07-11T13:00:31;0.82;;;0.70;;
56075;SDS011;41951;49.022;12.066;2022-07-11T13:02:57;0.75;;;0.70;;
56075;SDS011;41951;49.022;12.066;2022-07-11T13:05:23;1.05;;;0.77;;
56075;SDS011;41951;49.022;12.066;2022-07-11T13:07:49;0.68;;;0.68;;
56075;SDS011;41951;49.022;12.066;2022-07-11T13:10:34;0.63;;;0.63;;
56075;SDS011;41951;49.022;12.066;2022-07-11T13:13:15;0.95;;;0.70;;
56075;SDS011;41951;49.022;12.066;2022-07-11T13:15:42;1.05;;;0.80;;
56075;SDS011;41951;49.022;12.066;2022-07-11T13:18:07;0.73;;;0.70;;
56075;SDS011;41951;49.022;12.066;2022-07-11T13:20:34;1.88;;;0.70;;
56075;SDS011;41951;49.022;12.066;2022-07-11T13:23:00;2.80;;;0.80;;
56075;SDS011;41951;49.022;12.066;2022-07-11T13:25:26;2.72;;;0.80;;
56075;SDS011;41951;49.022;12.066;2022-07-11T13:27:53;1.67;;;0.88;;
56075;SDS011;41951;49.022;12.066;2022-07-11T13:30:21;1.30;;;0.80;;
56075;SDS011;41951;49.022;12.066;2022-07-11T13:32:51;0.75;;;0.60;;
56075;SDS011;41951;49.022;12.066;2022-07-11T13:35:17;1.35;;;0.90;;
56075;SDS011;41951;49.022;12.066;2022-07-11T13:37:44;1.20;;;0.75;;
56075;SDS011;41951;49.022;12.066;2022-07-11T13:40:12;1.23;;;0.80;;
56075;SDS011;41951;49.022;12.066;2022-07-11T13:42:39;2.03;;;0.73;;
56075;SDS011;41951;49.022;12.066;2022-07-11T13:45:06;1.30;;;0.88;;
56075;SDS011;41951;49.022;12.066;2022-07-11T13:47:33;1.90;;;1.00;;
56075;SDS011;41951;49.022;12.066;2022-07-11T13:49:59;0.70;;;0.60;;
56075;SDS011;41951;49.022;12.066;2022-07-11T13:52:25;0.85;;;0.70;;
56075;SDS011;41951;49.022;12.066;2022-07-11T13:54:51;9.15;;;2.00;;
56075;SDS011;41951;49.022;12.066;2022-07-11T13:57:17;2.70;;;0.98;;
56075;SDS011;41951;49.022;12.066;2022-07-11T13:59:43;1.25;;;0.90;;
56075;SDS011;41951;49.022;12.066;2022-07-11T14:02:08;1.15;;;0.82;;
56075;SDS011;41951;49.022;12.066;2022-07-11T14:04:34;1.00;;;0.90;;
56075;SDS011;41951;49.022;12.066;2022-07-11T14:07:00;0.70;;;0.65;;
56075;SDS011;41951;49.022;12.066;2022-07-11T14:09:25;2.05;;;1.20;;
56075;SDS011;41951;49.022;12.066;2022-07-11T14:11:52;2.15;;;1.10;;
56075;SDS011;41951;49.022;12.066;2022-07-11T14:14:18;2.60;;;1.80;;
56075;SDS011;41951;49.022;12.066;2022-07-11T14:16:44;4.88;;;2.80;;
56075;SDS011;41951;49.022;12.066;2022-07-11T14:19:10;3.63;;;1.00;;
56075;SDS011;41951;49.022;12.066;2022-07-11T14:21:38;1.75;;;0.98;;
56075;SDS011;41951;49.022;12.066;2022-07-11T14:24:04;0.90;;;0.80;;
56075;SDS011;41951;49.022;12.066;2022-07-11T14:26:31;1.88;;;1.10;;
56075;SDS011;41951;49.022;12.066;2022-07-11T14:28:57;3.03;;;1.30;;
56075;SDS011;41951;49.022;12.066;2022-07-11T14:31:24;2.17;;;1.17;;
56075;SDS011;41951;49.022;12.066;2022-07-11T14:33:53;1.73;;;0.90;;
56075;SDS011;41951;49.022;12.066;2022-07-11T14:36:19;1.08;;;0.77;;
56075;SDS011;41951;49.022;12.066;2022-07-11T14:38:45;3.50;;;2.13;;
56075;SDS011;41951;49.022;12.066;2022-07-11T14:41:11;3.30;;;0.90;;
56075;SDS011;41951;49.022;12.066;2022-07-11T14:43:37;3.00;;;1.45;;
56075;SDS011;41951;49.022;12.066;2022-07-11T14:46:03;6.28;;;2.53;;
56075;SDS011;41951;49.022;12.066;2022-07-11T14:48:28;2.05;;;1.48;;
56075;SDS011;41951;49.022;12.066;2022-07-11T14:50:54;1.48;;;0.73;;
56075;SDS011;41951;49.022;12.066;2022-07-11T14:53:20;0.75;;;0.60;;
56075;SDS011;41951;49.022;12.066;2022-07-11T14:55:46;3.75;;;0.85;;
56075;SDS011;41951;49.022;12.066;2022-07-11T14:58:12;1.42;;;0.80;;
56075;SDS011;41951;49.022;12.066;2022-07-11T15:00:37;0.65;;;0.60;;
56075;SDS011;41951;49.022;12.066;2022-07-11T15:03:04;0.52;;;0.50;;
56075;SDS011;41951;49.022;12.066;2022-07-11T15:05:49;0.90;;;0.50;;
56075;SDS011;41951;49.022;12.066;2022-07-11T15:08:15;1.33;;;0.80;;
56075;SDS011;41951;49.022;12.066;2022-07-11T15:10:59;1.38;;;0.77;;